createdAt,value
2022-08-25T00:03:13.072Z,20.38
2022-08-25T00:08:16.413Z,20.44
2022-08-25T00:13:19.418Z,20.47
2022-08-25T00:18:22.563Z,20.52
2022-08-25T00:23:25.661Z,20.55
2022-08-25T00:28:30.446Z,20.53
2022-08-25T00:33:34.374Z,20.44
2022-08-25T00:38:38.407Z,20.34
2022-08-25T00:43:41.245Z,20.20
2022-08-25T00:48:49.387Z,20.16
2022-08-25T00:53:52.435Z,20.17
2022-08-25T00:58:56.167Z,20.17
2022-08-25T01:03:59.238Z,20.13
2022-08-25T01:09:02.544Z,20.08
2022-08-25T01:14:07.191Z,20.09
2022-08-25T01:19:15.262Z,20.05
2022-08-25T01:24:56.648Z,19.97
2022-08-25T01:29:59.585Z,19.94
2022-08-25T01:35:02.516Z,19.95
2022-08-25T01:40:06.766Z,19.95
2022-08-25T01:45:10.547Z,19.96
2022-08-25T01:50:13.945Z,19.98
2022-08-25T01:55:17.301Z,20.03
2022-08-25T02:00:23.007Z,20.06
2022-08-25T02:05:26.001Z,20.05
2022-08-25T02:10:33.397Z,20.09
2022-08-25T02:15:48.941Z,20.11
2022-08-25T02:20:52.831Z,20.13
2022-08-25T02:25:57.349Z,20.13
2022-08-25T02:31:01.742Z,20.14
2022-08-25T02:36:06.210Z,20.13
2022-08-25T02:41:20.376Z,20.14
2022-08-25T02:46:25.069Z,20.13
2022-08-25T02:51:30.364Z,20.11
2022-08-25T02:56:34.218Z,20.10
2022-08-25T03:01:37.246Z,20.08
2022-08-25T03:06:40.971Z,20.08
2022-08-25T03:11:44.095Z,20.10
2022-08-25T03:16:47.121Z,20.08
2022-08-25T03:21:52.552Z,20.03
2022-08-25T03:26:58.712Z,20.01
2022-08-25T03:32:01.824Z,20.03
2022-08-25T03:37:07.029Z,20.02
2022-08-25T03:42:12.692Z,19.99
2022-08-25T03:47:16.789Z,19.99
2022-08-25T03:52:19.804Z,20.02
2022-08-25T03:57:22.765Z,20.06
2022-08-25T04:02:25.895Z,20.11
2022-08-25T04:07:29.728Z,20.12
2022-08-25T04:12:32.767Z,20.13
2022-08-25T04:17:39.111Z,20.16
2022-08-25T04:22:44.957Z,20.21
2022-08-25T04:27:48.480Z,20.28
2022-08-25T04:32:51.392Z,20.39
2022-08-25T04:37:54.443Z,20.61
2022-08-25T04:42:57.449Z,20.81
2022-08-25T04:48:01.515Z,20.94
2022-08-25T04:53:04.585Z,21.06
2022-08-25T04:58:07.749Z,21.10
2022-08-25T05:03:19.588Z,21.19
2022-08-25T05:08:22.643Z,21.35
2022-08-25T05:13:27.621Z,21.54
2022-08-25T05:18:34.456Z,21.59
2022-08-25T05:23:39.032Z,21.57
2022-08-25T05:28:42.881Z,21.49
2022-08-25T05:33:46.360Z,21.45
2022-08-25T05:38:50.057Z,21.36
2022-08-25T05:43:53.080Z,21.25
2022-08-25T05:48:56.085Z,21.19
2022-08-25T05:53:59.047Z,21.15
2022-08-25T05:59:06.119Z,21.09
2022-08-25T06:04:12.440Z,21.01
2022-08-25T06:09:15.492Z,20.87
2022-08-25T06:14:18.692Z,20.80
2022-08-25T06:19:23.535Z,20.67
2022-08-25T06:24:29.521Z,20.52
2022-08-25T06:29:32.816Z,20.47
2022-08-25T06:34:37.327Z,20.43
2022-08-25T06:39:40.281Z,20.39
2022-08-25T06:44:43.461Z,20.38
2022-08-25T06:49:46.862Z,20.41
2022-08-25T06:54:49.816Z,20.41
2022-08-25T06:59:53.549Z,20.36
2022-08-25T07:04:57.460Z,20.33
2022-08-25T07:10:00.375Z,20.30
2022-08-25T07:15:19.410Z,20.29
2022-08-25T07:25:31.213Z,20.36
2022-08-25T07:30:34.295Z,20.45
2022-08-25T07:35:39.006Z,20.53
2022-08-25T07:40:46.543Z,20.62
2022-08-25T07:45:56.431Z,20.71
2022-08-25T07:51:02.484Z,20.77
2022-08-25T07:56:14.666Z,20.92
2022-08-25T08:01:22.227Z,21.12
2022-08-25T08:06:25.392Z,21.38
2022-08-25T08:11:37.269Z,21.64
2022-08-25T08:16:40.513Z,21.78
2022-08-25T08:21:46.751Z,21.90
2022-08-25T08:26:58.633Z,21.96
2022-08-25T08:32:05.057Z,22.08
2022-08-25T08:37:10.542Z,22.14
2022-08-25T08:43:02.593Z,22.16
2022-08-25T08:48:28.211Z,22.20
2022-08-25T08:54:20.541Z,22.25
2022-08-25T08:59:34.365Z,22.30
2022-08-25T09:05:01.597Z,22.36
2022-08-25T09:10:05.519Z,22.53
2022-08-25T09:15:46.976Z,22.66
2022-08-25T09:21:22.679Z,22.80
2022-08-25T09:26:39.881Z,22.99
2022-08-25T09:31:43.294Z,23.08
2022-08-25T09:36:48.788Z,23.13
2022-08-25T09:41:59.236Z,23.13
2022-08-25T09:47:28.013Z,23.17
2022-08-25T09:52:41.703Z,23.22
2022-08-25T09:57:49.185Z,23.41
2022-08-25T10:03:12.946Z,23.65
2022-08-25T10:08:41.000Z,23.92
2022-08-25T10:13:48.800Z,24.20
2022-08-25T10:19:09.277Z,24.50
2022-08-25T10:24:13.789Z,24.85
2022-08-25T10:29:34.763Z,25.05
2022-08-25T10:34:52.563Z,25.11
2022-08-25T10:40:50.383Z,25.32
2022-08-25T10:46:10.841Z,25.55
2022-08-25T10:52:05.402Z,25.85
2022-08-25T10:57:36.261Z,26.10
2022-08-25T11:03:37.159Z,26.24
2022-08-25T11:08:51.879Z,26.58
2022-08-25T11:14:11.390Z,26.90
2022-08-25T11:19:32.820Z,27.03
2022-08-25T11:24:55.772Z,27.15
2022-08-25T11:30:08.960Z,27.32
2022-08-25T11:35:16.373Z,27.30
2022-08-25T11:40:50.403Z,27.24
2022-08-25T11:46:16.294Z,27.04
2022-08-25T11:51:49.902Z,26.81
2022-08-25T11:57:22.234Z,26.68
2022-08-25T12:02:39.274Z,26.80
2022-08-25T12:08:13.839Z,26.77
2022-08-25T12:13:51.332Z,26.85
2022-08-25T12:18:54.500Z,26.87
2022-08-25T12:24:03.147Z,26.90
2022-08-25T12:29:23.837Z,27.01
2022-08-25T12:34:53.135Z,27.33
2022-08-25T12:40:03.210Z,27.72
2022-08-25T12:45:14.208Z,27.98
2022-08-25T12:50:35.807Z,27.84
2022-08-25T12:55:47.437Z,28.14
2022-08-25T13:01:07.212Z,28.53
2022-08-25T13:06:39.612Z,28.74
2022-08-25T13:11:56.551Z,28.61
2022-08-25T13:17:01.092Z,28.69
2022-08-25T13:22:17.755Z,28.65
2022-08-25T13:27:27.163Z,28.60
2022-08-25T13:32:36.740Z,28.61
2022-08-25T13:37:39.846Z,28.74
2022-08-25T13:42:52.972Z,28.77
2022-08-25T13:47:58.971Z,28.72
2022-08-25T13:53:22.896Z,28.67
2022-08-25T13:58:39.402Z,28.70
2022-08-25T14:03:48.893Z,28.65
2022-08-25T14:08:55.543Z,28.37
2022-08-25T14:14:10.238Z,28.36
2022-08-25T14:19:20.261Z,28.35
2022-08-25T14:24:24.310Z,28.32
2022-08-25T14:29:31.406Z,28.33
2022-08-25T14:34:42.691Z,28.32
2022-08-25T14:39:46.795Z,28.35
2022-08-25T14:44:51.021Z,28.38
2022-08-25T14:49:54.037Z,28.38
2022-08-25T14:54:57.766Z,28.42
2022-08-25T15:00:00.891Z,28.58
2022-08-25T15:05:08.444Z,28.74
2022-08-25T15:10:13.630Z,28.83
2022-08-25T15:15:20.377Z,29.16
2022-08-25T15:20:25.095Z,29.29
2022-08-25T15:25:31.787Z,29.27
2022-08-25T15:30:36.247Z,29.32
2022-08-25T15:35:39.484Z,29.37
2022-08-25T15:40:45.425Z,29.36
2022-08-25T15:45:50.178Z,29.44
2022-08-25T15:50:56.912Z,29.13
2022-08-25T15:56:04.719Z,29.06
2022-08-25T16:01:21.078Z,28.95
2022-08-25T16:06:26.301Z,28.78
2022-08-25T16:11:34.747Z,28.61
2022-08-25T16:16:38.903Z,28.37
2022-08-25T16:21:47.420Z,28.33
2022-08-25T16:26:51.966Z,28.12
2022-08-25T16:31:55.433Z,27.99
2022-08-25T16:37:00.052Z,27.77
2022-08-25T16:42:03.001Z,27.74
2022-08-25T16:47:08.846Z,27.53
2022-08-25T16:52:30.977Z,27.36
2022-08-25T16:57:33.910Z,27.14
2022-08-25T17:02:37.512Z,26.92
2022-08-25T17:07:41.635Z,26.74
2022-08-25T17:12:44.629Z,26.56
2022-08-25T17:17:47.681Z,26.38
2022-08-25T17:22:51.106Z,26.17
2022-08-25T17:27:54.148Z,25.96
2022-08-25T17:32:57.184Z,25.74
2022-08-25T17:38:00.219Z,25.47
2022-08-25T17:43:04.361Z,25.25
2022-08-25T17:48:13.282Z,25.09
2022-08-25T17:53:17.508Z,24.95
2022-08-25T17:58:21.290Z,24.86
2022-08-25T18:03:25.573Z,24.78
2022-08-25T18:08:34.781Z,24.67
2022-08-25T18:13:38.934Z,24.53
2022-08-25T18:18:42.273Z,24.42
2022-08-25T18:23:45.701Z,24.32
2022-08-25T18:28:49.613Z,24.22
2022-08-25T18:33:52.633Z,24.10
2022-08-25T18:39:14.261Z,23.99
2022-08-25T18:44:20.183Z,23.90
2022-08-25T18:49:26.900Z,23.80
2022-08-25T18:54:31.786Z,23.76
2022-08-25T18:59:39.313Z,23.70
2022-08-25T19:04:42.605Z,23.65
2022-08-25T19:09:46.187Z,23.58
2022-08-25T19:14:49.165Z,23.51
2022-08-25T19:19:52.273Z,23.48
2022-08-25T19:24:55.348Z,23.44
2022-08-25T19:30:00.149Z,23.36
2022-08-25T19:35:03.473Z,23.30
2022-08-25T19:40:09.524Z,23.22
2022-08-25T19:45:14.357Z,23.16
2022-08-25T19:50:19.741Z,23.10
2022-08-25T19:55:24.833Z,23.04
2022-08-25T20:00:34.232Z,22.99
2022-08-25T20:05:40.267Z,22.92
2022-08-25T20:10:46.158Z,22.84
2022-08-25T20:15:50.149Z,22.75
2022-08-25T20:20:53.502Z,22.68
2022-08-25T20:25:56.454Z,22.61
2022-08-25T20:30:59.773Z,22.53
2022-08-25T20:36:04.983Z,22.48
2022-08-25T20:41:12.892Z,22.46
2022-08-25T20:46:16.627Z,22.46
2022-08-25T20:51:22.084Z,22.44
2022-08-25T20:56:29.836Z,22.41
2022-08-25T21:01:39.707Z,22.39
2022-08-25T21:06:45.607Z,22.34
2022-08-25T21:11:53.340Z,22.29
2022-08-25T21:16:56.502Z,22.23
2022-08-25T21:22:00.573Z,22.14
2022-08-25T21:27:04.617Z,22.07
2022-08-25T21:32:07.658Z,21.95
2022-08-25T21:37:11.661Z,21.81
2022-08-25T21:42:14.856Z,21.66
2022-08-25T21:47:20.992Z,21.56
2022-08-25T21:52:24.673Z,21.47
2022-08-25T21:57:28.907Z,21.38
2022-08-25T22:02:33.182Z,21.39
2022-08-25T22:07:41.716Z,21.37
2022-08-25T22:12:48.529Z,21.38
2022-08-25T22:17:51.677Z,21.43
2022-08-25T22:23:03.593Z,21.49
2022-08-25T22:28:07.259Z,21.50
2022-08-25T22:33:17.940Z,21.43
2022-08-25T22:38:20.881Z,21.40
2022-08-25T22:43:23.985Z,21.37
2022-08-25T22:48:27.050Z,21.30
2022-08-25T22:53:30.521Z,21.23
2022-08-25T22:58:33.659Z,21.17
2022-08-25T23:03:37.199Z,21.12
2022-08-25T23:08:48.824Z,21.04
2022-08-25T23:13:56.325Z,20.97
2022-08-25T23:19:00.457Z,20.87
2022-08-25T23:24:04.446Z,20.73
2022-08-25T23:29:17.815Z,20.59
2022-08-25T23:34:22.256Z,20.54
2022-08-25T23:39:25.627Z,20.45
2022-08-25T23:44:29.412Z,20.39
2022-08-25T23:49:33.108Z,20.28
2022-08-25T23:54:36.551Z,20.19
2022-08-25T23:59:39.745Z,20.10
